createdAt,value
2022-08-19T00:00:33.203Z,99546.58
2022-08-19T00:03:21.011Z,99542.01
2022-08-19T00:06:09.556Z,99542.51
2022-08-19T00:09:01.198Z,99540.73
2022-08-19T00:11:49.292Z,99540.09
2022-08-19T00:14:39.346Z,99533.48
2022-08-19T00:17:27.286Z,99528.80
2022-08-19T00:20:21.225Z,99529.63
2022-08-19T00:23:11.518Z,99528.63
2022-08-19T00:25:59.292Z,99533.78
2022-08-19T00:28:48.200Z,99539.05
2022-08-19T00:31:36.881Z,99544.94
2022-08-19T00:34:29.063Z,99549.38
2022-08-19T00:37:17.186Z,99550.33
2022-08-19T00:40:08.233Z,99548.23
2022-08-19T00:42:55.947Z,99547.56
2022-08-19T00:45:44.747Z,99549.64
2022-08-19T00:48:34.724Z,99552.59
2022-08-19T00:51:23.406Z,99554.42
2022-08-19T00:54:12.116Z,99558.33
2022-08-19T00:57:04.892Z,99556.42
2022-08-19T01:00:02.530Z,99560.43
2022-08-19T01:02:51.008Z,99563.64
2022-08-19T01:05:44.643Z,99560.84
2022-08-19T01:08:32.768Z,99559.90
2022-08-19T01:11:20.811Z,99556.68
2022-08-19T01:14:10.521Z,99556.77
2022-08-19T01:17:01.187Z,99558.95
2022-08-19T01:19:49.838Z,99559.91
2022-08-19T01:22:47.142Z,99559.73
2022-08-19T01:26:02.155Z,99553.16
2022-08-19T01:29:01.060Z,99557.23
2022-08-19T01:31:50.325Z,99555.71
2022-08-19T01:34:38.054Z,99556.55
2022-08-19T01:37:27.208Z,99551.86
2022-08-19T01:40:17.942Z,99551.52
2022-08-19T01:43:06.951Z,99550.86
2022-08-19T01:45:55.341Z,99552.84
2022-08-19T01:48:45.474Z,99551.33
2022-08-19T01:51:39.898Z,99549.56
2022-08-19T01:54:28.908Z,99556.52
2022-08-19T01:57:17.202Z,99556.30
2022-08-19T02:00:11.587Z,99551.73
2022-08-19T02:03:00.369Z,99553.13
2022-08-19T02:05:48.234Z,99555.07
2022-08-19T02:08:39.464Z,99554.96
2022-08-19T02:11:32.759Z,99556.08
2022-08-19T02:14:20.681Z,99556.23
2022-08-19T02:17:08.878Z,99553.83
2022-08-19T02:19:57.870Z,99554.70
2022-08-19T02:22:45.997Z,99553.63
2022-08-19T02:25:33.760Z,99551.98
2022-08-19T02:28:21.864Z,99553.11
2022-08-19T02:31:13.464Z,99554.31
2022-08-19T02:34:02.411Z,99552.19
2022-08-19T02:36:51.655Z,99547.10
2022-08-19T02:39:40.017Z,99546.42
2022-08-19T02:42:28.139Z,99545.60
2022-08-19T02:45:16.551Z,99542.91
2022-08-19T02:48:06.016Z,99541.34
2022-08-19T02:51:06.555Z,99539.61
2022-08-19T02:53:55.268Z,99541.83
2022-08-19T02:56:44.903Z,99545.25
2022-08-19T02:59:33.932Z,99549.34
2022-08-19T03:02:21.782Z,99552.16
2022-08-19T03:05:11.747Z,99550.97
2022-08-19T03:08:00.124Z,99553.81
2022-08-19T03:10:49.007Z,99549.85
2022-08-19T03:13:37.070Z,99550.58
2022-08-19T03:16:28.799Z,99552.65
2022-08-19T03:19:25.031Z,99553.36
2022-08-19T03:22:13.817Z,99554.21
2022-08-19T03:25:02.000Z,99551.66
2022-08-19T03:27:51.562Z,99548.80
2022-08-19T03:30:57.284Z,99552.30
2022-08-19T03:33:46.220Z,99553.58
2022-08-19T03:36:34.156Z,99561.27
2022-08-19T03:39:24.306Z,99564.27
2022-08-19T03:42:32.904Z,99557.06
2022-08-19T03:45:21.690Z,99547.95
2022-08-19T03:48:09.858Z,99549.81
2022-08-19T03:51:00.157Z,99547.73
2022-08-19T03:53:48.502Z,99548.80
2022-08-19T03:56:38.662Z,99550.85
2022-08-19T03:59:37.159Z,99549.86
2022-08-19T04:02:25.894Z,99555.54
2022-08-19T04:05:15.255Z,99556.95
2022-08-19T04:08:03.541Z,99558.11
2022-08-19T04:10:51.650Z,99555.05
2022-08-19T04:13:39.694Z,99562.91
2022-08-19T04:16:34.977Z,99568.48
2022-08-19T04:19:24.467Z,99570.63
2022-08-19T04:22:12.842Z,99572.73
2022-08-19T04:25:01.061Z,99571.82
2022-08-19T04:27:49.920Z,99567.91
2022-08-19T04:30:48.782Z,99565.11
2022-08-19T04:33:36.857Z,99562.61
2022-08-19T04:36:28.576Z,99563.05
2022-08-19T04:39:19.988Z,99560.21
2022-08-19T04:42:30.962Z,99563.49
2022-08-19T04:45:19.751Z,99563.90
2022-08-19T04:48:26.473Z,99565.36
2022-08-19T04:51:14.912Z,99563.86
2022-08-19T04:54:04.603Z,99559.69
2022-08-19T04:56:54.448Z,99559.57
2022-08-19T04:59:42.820Z,99563.06
2022-08-19T05:02:31.128Z,99568.33
2022-08-19T05:05:20.846Z,99568.05
2022-08-19T05:08:08.873Z,99569.45
2022-08-19T05:10:58.583Z,99559.26
2022-08-19T05:13:48.297Z,99563.09
2022-08-19T05:16:36.570Z,99568.23
2022-08-19T05:19:43.027Z,99567.38
2022-08-19T05:22:35.827Z,99565.65
2022-08-19T05:25:25.438Z,99566.91
2022-08-19T05:28:13.304Z,99568.95
2022-08-19T05:31:01.160Z,99573.55
2022-08-19T05:33:49.382Z,99571.84
2022-08-19T05:36:41.691Z,99563.87
2022-08-19T05:39:33.386Z,99558.76
2022-08-19T05:42:24.761Z,99560.29
2022-08-19T05:45:13.726Z,99564.48
2022-08-19T05:48:02.021Z,99567.98
2022-08-19T05:50:51.385Z,99574.73
2022-08-19T05:53:39.589Z,99578.33
2022-08-19T05:56:27.410Z,99578.42
2022-08-19T05:59:17.446Z,99576.20
2022-08-19T06:02:07.897Z,99576.50
2022-08-19T06:04:55.983Z,99583.91
2022-08-19T06:07:43.991Z,99591.38
2022-08-19T06:10:32.237Z,99594.94
2022-08-19T06:13:20.997Z,99599.59
2022-08-19T06:16:09.373Z,99596.38
2022-08-19T06:19:02.227Z,99592.65
2022-08-19T06:21:52.387Z,99592.00
2022-08-19T06:24:40.403Z,99591.91
2022-08-19T06:27:28.154Z,99585.08
2022-08-19T06:30:16.715Z,99591.77
2022-08-19T06:33:04.774Z,99589.89
2022-08-19T06:35:53.057Z,99596.64
2022-08-19T06:38:41.458Z,99592.98
2022-08-19T06:41:36.395Z,99589.46
2022-08-19T06:44:30.435Z,99592.98
2022-08-19T06:47:24.058Z,99585.77
2022-08-19T06:50:17.067Z,99587.70
2022-08-19T06:53:07.190Z,99591.24
2022-08-19T06:56:01.068Z,99584.70
2022-08-19T06:58:52.882Z,99585.38
2022-08-19T07:01:50.774Z,99576.40
2022-08-19T07:04:42.200Z,99574.60
2022-08-19T07:07:32.855Z,99570.18
2022-08-19T07:10:22.433Z,99572.98
2022-08-19T07:13:14.273Z,99573.98
2022-08-19T07:16:09.283Z,99572.88
2022-08-19T07:18:57.940Z,99572.58
2022-08-19T07:21:47.607Z,99573.41
2022-08-19T07:24:37.341Z,99568.73
2022-08-19T07:27:25.601Z,99568.95
2022-08-19T07:30:14.542Z,99570.76
2022-08-19T07:33:03.371Z,99575.95
2022-08-19T07:35:51.900Z,99577.05
2022-08-19T07:38:47.996Z,99573.43
2022-08-19T07:41:38.246Z,99573.96
2022-08-19T07:44:26.939Z,99565.25
2022-08-19T07:47:48.172Z,99570.11
2022-08-19T07:50:24.910Z,99565.88
2022-08-19T07:53:13.737Z,99564.34
2022-08-19T07:56:05.192Z,99565.11
2022-08-19T08:01:47.504Z,99552.70
2022-08-19T08:04:54.959Z,99554.48
2022-08-19T08:08:01.630Z,99557.88
2022-08-19T08:10:53.131Z,99555.96
2022-08-19T08:13:44.977Z,99559.52
2022-08-19T08:16:46.763Z,99557.88
2022-08-19T08:19:36.576Z,99556.98
2022-08-19T08:22:44.670Z,99556.90
2022-08-19T08:25:34.404Z,99554.81
2022-08-19T08:28:24.853Z,99554.52
2022-08-19T08:31:14.433Z,99552.76
2022-08-19T08:34:02.599Z,99552.11
2022-08-19T08:36:52.173Z,99548.44
2022-08-19T08:39:40.030Z,99548.13
2022-08-19T08:42:37.619Z,99547.95
2022-08-19T08:45:25.886Z,99543.27
2022-08-19T08:48:52.752Z,99544.58
2022-08-19T08:51:59.859Z,99544.42
2022-08-19T08:54:54.993Z,99543.66
2022-08-19T08:57:49.967Z,99543.11
2022-08-19T09:00:44.009Z,99537.23
2022-08-19T09:03:31.923Z,99536.91
2022-08-19T09:06:38.262Z,99536.31
2022-08-19T09:09:52.052Z,99532.98
2022-08-19T09:13:37.279Z,99529.71
2022-08-19T09:16:28.409Z,99529.02
2022-08-19T09:19:22.223Z,99520.34
2022-08-19T09:22:10.608Z,99508.24
2022-08-19T09:24:58.897Z,99512.60
2022-08-19T09:27:47.125Z,99512.27
2022-08-19T09:30:42.189Z,99511.67
2022-08-19T09:33:30.210Z,99512.78
2022-08-19T09:36:34.516Z,99516.50
2022-08-19T09:39:23.465Z,99512.17
2022-08-19T09:42:16.337Z,99504.27
2022-08-19T09:45:10.255Z,99502.27
2022-08-19T09:47:58.497Z,99500.02
2022-08-19T09:50:51.536Z,99498.48
2022-08-19T09:53:40.420Z,99495.83
2022-08-19T09:56:29.317Z,99496.52
2022-08-19T09:59:17.312Z,99498.36
2022-08-19T10:02:11.021Z,99496.98
2022-08-19T10:05:26.594Z,99491.63
2022-08-19T10:08:20.705Z,99493.77
2022-08-19T10:11:28.048Z,99495.69
2022-08-19T10:14:23.150Z,99494.33
2022-08-19T10:17:17.667Z,99487.70
2022-08-19T10:20:08.315Z,99481.97
2022-08-19T10:22:55.892Z,99479.55
2022-08-19T10:25:47.261Z,99476.27
2022-08-19T10:28:42.651Z,99471.18
2022-08-19T10:32:01.236Z,99467.27
2022-08-19T10:34:48.955Z,99464.38
2022-08-19T10:37:42.329Z,99460.79
2022-08-19T10:40:44.754Z,99455.09
2022-08-19T10:43:32.550Z,99458.46
2022-08-19T10:46:19.906Z,99455.48
2022-08-19T10:49:12.280Z,99454.89
2022-08-19T10:52:18.996Z,99456.84
2022-08-19T10:55:29.356Z,99447.58
2022-08-19T10:58:23.542Z,99448.23
2022-08-19T11:01:11.571Z,99442.28
2022-08-19T11:04:00.595Z,99435.48
2022-08-19T11:06:51.994Z,99433.13
2022-08-19T11:09:47.702Z,99426.19
2022-08-19T11:12:37.413Z,99426.26
2022-08-19T11:15:30.057Z,99422.02
2022-08-19T11:18:19.005Z,99413.52
2022-08-19T11:21:18.071Z,99406.37
2022-08-19T11:25:23.774Z,99403.73
2022-08-19T11:32:36.272Z,99394.19
2022-08-19T11:35:25.472Z,99392.52
2022-08-19T11:38:15.759Z,99398.27
2022-08-19T11:46:12.831Z,99396.19
2022-08-19T11:49:06.592Z,99393.86
2022-08-19T11:51:55.478Z,99388.15
2022-08-19T11:54:43.506Z,99381.89
2022-08-19T11:57:57.895Z,99372.73
2022-08-19T12:00:49.827Z,99366.15
2022-08-19T12:03:41.267Z,99359.82
2022-08-19T12:06:54.002Z,99362.55
2022-08-19T12:09:49.553Z,99360.70
2022-08-19T12:12:58.047Z,99355.54
2022-08-19T12:15:54.763Z,99356.41
2022-08-19T12:19:07.566Z,99357.89
2022-08-19T12:22:06.515Z,99362.13
2022-08-19T12:24:58.010Z,99354.67
2022-08-19T12:27:52.857Z,99354.77
2022-08-19T12:30:44.966Z,99357.98
2022-08-19T12:33:33.557Z,99352.79
2022-08-19T12:36:26.566Z,99358.84
2022-08-19T12:39:19.785Z,99359.58
2022-08-19T12:42:13.894Z,99361.68
2022-08-19T12:45:01.530Z,99358.17
2022-08-19T12:47:49.585Z,99348.56
2022-08-19T12:50:45.523Z,99344.47
2022-08-19T12:53:36.873Z,99343.41
2022-08-19T12:56:29.738Z,99339.45
2022-08-19T12:59:18.679Z,99338.91
2022-08-19T13:02:14.409Z,99331.70
2022-08-19T13:05:01.937Z,99329.02
2022-08-19T13:07:57.544Z,99327.82
2022-08-19T13:10:45.274Z,99320.97
2022-08-19T13:13:32.721Z,99316.45
2022-08-19T13:16:22.974Z,99308.41
2022-08-19T13:19:11.716Z,99310.87
2022-08-19T13:22:00.473Z,99313.48
2022-08-19T13:24:49.397Z,99313.29
2022-08-19T13:27:38.473Z,99311.41
2022-08-19T13:30:45.124Z,99312.58
2022-08-19T13:33:34.210Z,99311.53
2022-08-19T13:36:22.032Z,99311.58
2022-08-19T13:39:10.870Z,99305.78
2022-08-19T13:41:59.344Z,99297.34
2022-08-19T13:44:54.786Z,99305.55
2022-08-19T13:47:45.990Z,99299.23
2022-08-19T13:50:36.997Z,99294.92
2022-08-19T13:53:28.937Z,99291.61
2022-08-19T13:56:25.397Z,99290.84
2022-08-19T13:59:15.579Z,99293.36
2022-08-19T14:02:06.551Z,99289.81
2022-08-19T14:04:55.397Z,99288.70
2022-08-19T14:07:46.696Z,99288.84
2022-08-19T14:10:35.318Z,99290.56
2022-08-19T14:13:26.814Z,99285.73
2022-08-19T14:16:15.860Z,99282.50
2022-08-19T14:19:05.006Z,99278.92
2022-08-19T14:21:52.720Z,99280.06
2022-08-19T14:24:40.944Z,99275.00
2022-08-19T14:27:37.098Z,99273.64
2022-08-19T14:30:32.439Z,99271.98
2022-08-19T14:33:20.663Z,99270.95
2022-08-19T14:36:08.431Z,99269.84
2022-08-19T14:38:55.877Z,99276.56
2022-08-19T14:41:46.408Z,99278.16
2022-08-19T14:44:35.382Z,99276.11
2022-08-19T14:47:23.602Z,99273.63
2022-08-19T14:50:17.917Z,99274.67
2022-08-19T14:53:12.379Z,99273.73
2022-08-19T14:56:02.129Z,99269.95
2022-08-19T14:58:52.818Z,99277.23
2022-08-19T15:01:40.912Z,99274.40
2022-08-19T15:04:33.289Z,99270.28
2022-08-19T15:07:21.065Z,99262.20
2022-08-19T15:10:13.079Z,99263.05
2022-08-19T15:13:00.809Z,99257.20
2022-08-19T15:15:49.454Z,99251.54
2022-08-19T15:18:37.802Z,99244.82
2022-08-19T15:21:27.577Z,99241.91
2022-08-19T15:24:18.621Z,99242.95
2022-08-19T15:27:06.974Z,99242.73
2022-08-19T15:29:54.726Z,99243.88
2022-08-19T15:32:49.439Z,99244.63
2022-08-19T15:35:37.154Z,99240.62
2022-08-19T15:38:27.014Z,99237.50
2022-08-19T15:41:24.557Z,99243.23
2022-08-19T15:44:18.537Z,99238.05
2022-08-19T15:47:06.372Z,99236.49
2022-08-19T15:49:56.679Z,99239.12
2022-08-19T15:52:55.683Z,99238.13
2022-08-19T15:55:46.277Z,99237.63
2022-08-19T15:58:52.670Z,99230.41
2022-08-19T16:02:01.660Z,99226.11
2022-08-19T16:05:08.118Z,99222.42
2022-08-19T16:07:55.973Z,99220.57
2022-08-19T16:10:43.885Z,99221.87
2022-08-19T16:13:32.917Z,99221.35
2022-08-19T16:16:36.840Z,99218.73
2022-08-19T16:19:25.372Z,99216.90
2022-08-19T16:22:13.121Z,99214.64
2022-08-19T16:25:02.634Z,99212.46
2022-08-19T16:27:50.800Z,99201.68
2022-08-19T16:30:54.601Z,99201.19
2022-08-19T16:33:42.462Z,99205.59
2022-08-19T16:36:31.320Z,99209.90
2022-08-19T16:39:19.320Z,99213.60
2022-08-19T16:42:09.142Z,99217.48
2022-08-19T16:44:57.520Z,99219.20
2022-08-19T16:47:45.466Z,99218.73
2022-08-19T16:50:48.716Z,99219.52
2022-08-19T16:53:40.660Z,99224.05
2022-08-19T16:56:29.123Z,99224.84
2022-08-19T16:59:17.609Z,99232.05
2022-08-19T17:02:05.609Z,99233.34
2022-08-19T17:04:58.150Z,99242.56
2022-08-19T17:07:46.632Z,99244.55
2022-08-19T17:10:34.786Z,99246.31
2022-08-19T17:13:25.573Z,99247.63
2022-08-19T17:16:12.934Z,99247.59
2022-08-19T17:19:03.625Z,99245.50
2022-08-19T17:21:52.324Z,99248.64
2022-08-19T17:24:41.003Z,99249.16
2022-08-19T17:27:32.221Z,99249.20
2022-08-19T17:30:22.040Z,99248.42
2022-08-19T17:33:09.655Z,99249.91
2022-08-19T17:35:57.321Z,99248.78
2022-08-19T17:38:45.815Z,99246.33
2022-08-19T17:41:34.703Z,99241.73
2022-08-19T17:44:22.138Z,99248.05
2022-08-19T17:47:09.636Z,99244.60
2022-08-19T17:49:58.184Z,99238.69
2022-08-19T17:52:45.974Z,99237.67
2022-08-19T17:55:34.770Z,99230.16
2022-08-19T17:58:22.474Z,99228.86
2022-08-19T18:01:15.105Z,99230.48
2022-08-19T18:04:07.498Z,99234.73
2022-08-19T18:06:55.740Z,99233.28
2022-08-19T18:09:49.363Z,99229.78
2022-08-19T18:12:38.213Z,99231.33
2022-08-19T18:15:26.078Z,99237.80
2022-08-19T18:18:15.604Z,99238.42
2022-08-19T18:21:03.609Z,99234.75
2022-08-19T18:23:51.287Z,99239.11
2022-08-19T18:26:44.014Z,99231.09
2022-08-19T18:29:33.622Z,99231.71
2022-08-19T18:32:23.998Z,99228.40
2022-08-19T18:35:16.423Z,99232.50
2022-08-19T18:38:27.480Z,99233.99
2022-08-19T18:41:33.488Z,99235.38
2022-08-19T18:44:39.834Z,99240.71
2022-08-19T18:47:46.282Z,99243.19
2022-08-19T18:50:33.930Z,99243.17
2022-08-19T18:53:21.234Z,99245.14
2022-08-19T18:56:13.282Z,99247.38
2022-08-19T18:59:02.034Z,99246.91
2022-08-19T19:01:52.732Z,99247.41
2022-08-19T19:04:40.687Z,99251.38
2022-08-19T19:07:29.699Z,99252.95
2022-08-19T19:10:17.146Z,99257.33
2022-08-19T19:13:04.966Z,99259.75
2022-08-19T19:15:54.534Z,99264.88
2022-08-19T19:18:42.684Z,99259.39
2022-08-19T19:21:34.404Z,99262.44
2022-08-19T19:24:32.836Z,99267.17
2022-08-19T19:27:21.370Z,99268.16
2022-08-19T19:30:11.029Z,99271.58
2022-08-19T19:33:00.468Z,99276.98
2022-08-19T19:35:47.918Z,99273.95
2022-08-19T19:38:38.520Z,99281.18
2022-08-19T19:41:31.326Z,99285.52
2022-08-19T19:44:30.610Z,99280.02
2022-08-19T19:47:19.689Z,99283.11
2022-08-19T19:50:16.018Z,99287.11
2022-08-19T19:53:03.832Z,99284.44
2022-08-19T19:55:51.742Z,99284.96
2022-08-19T19:58:41.758Z,99285.48
2022-08-19T20:01:29.898Z,99284.52
2022-08-19T20:04:18.585Z,99280.23
2022-08-19T20:07:06.847Z,99280.31
2022-08-19T20:10:00.138Z,99281.55
2022-08-19T20:12:52.991Z,99277.20
2022-08-19T20:15:43.727Z,99279.15
2022-08-19T20:18:31.344Z,99283.06
2022-08-19T20:21:19.152Z,99286.67
2022-08-19T20:24:09.536Z,99291.23
2022-08-19T20:27:00.566Z,99294.83
2022-08-19T20:29:48.541Z,99300.83
2022-08-19T20:32:38.386Z,99299.58
2022-08-19T20:35:26.836Z,99299.74
2022-08-19T20:38:14.578Z,99297.55
2022-08-19T20:41:03.323Z,99300.73
2022-08-19T20:43:51.982Z,99301.70
2022-08-19T20:46:40.020Z,99305.36
2022-08-19T20:49:27.809Z,99307.55
2022-08-19T20:52:16.823Z,99309.79
2022-08-19T20:55:05.755Z,99311.21
2022-08-19T20:57:54.838Z,99308.06
2022-08-19T21:00:46.711Z,99308.79
2022-08-19T21:03:42.923Z,99305.79
2022-08-19T21:06:31.341Z,99305.17
2022-08-19T21:09:21.166Z,99309.01
2022-08-19T21:12:13.065Z,99307.49
2022-08-19T21:15:01.599Z,99308.13
2022-08-19T21:18:10.318Z,99307.26
2022-08-19T21:21:08.765Z,99302.93
2022-08-19T21:23:57.171Z,99317.00
2022-08-19T21:26:47.159Z,99301.56
2022-08-19T21:29:40.330Z,99305.58
2022-08-19T21:32:28.070Z,99312.73
2022-08-19T21:35:15.480Z,99307.92
2022-08-19T21:38:03.125Z,99309.27
2022-08-19T21:40:51.372Z,99301.67
2022-08-19T21:43:39.466Z,99299.76
2022-08-19T21:46:28.565Z,99301.82
2022-08-19T21:49:16.333Z,99309.22
2022-08-19T21:52:04.204Z,99312.97
2022-08-19T21:54:53.313Z,99318.96
2022-08-19T21:57:41.737Z,99317.85
2022-08-19T22:00:32.294Z,99319.63
2022-08-19T22:03:21.621Z,99321.13
2022-08-19T22:06:09.855Z,99325.24
2022-08-19T22:08:57.446Z,99322.46
2022-08-19T22:11:45.004Z,99317.70
2022-08-19T22:14:33.821Z,99316.59
2022-08-19T22:17:23.036Z,99322.34
2022-08-19T22:20:19.746Z,99328.50
2022-08-19T22:23:08.405Z,99328.92
2022-08-19T22:25:56.086Z,99333.63
2022-08-19T22:28:44.311Z,99331.09
2022-08-19T22:31:32.663Z,99327.39
2022-08-19T22:34:20.743Z,99321.63
2022-08-19T22:37:08.883Z,99325.52
2022-08-19T22:39:56.802Z,99319.58
2022-08-19T22:42:45.979Z,99319.97
2022-08-19T22:45:35.205Z,99315.65
2022-08-19T22:48:28.130Z,99315.22
2022-08-19T22:51:35.074Z,99309.70
2022-08-19T22:54:23.176Z,99313.30
2022-08-19T22:57:11.604Z,99310.39
2022-08-19T23:00:01.289Z,99309.98
2022-08-19T23:02:51.615Z,99309.08
2022-08-19T23:05:40.157Z,99305.10
2022-08-19T23:08:28.068Z,99305.52
2022-08-19T23:11:15.465Z,99300.52
2022-08-19T23:14:05.687Z,99294.79
2022-08-19T23:16:59.414Z,99296.27
2022-08-19T23:19:46.790Z,99303.40
2022-08-19T23:22:37.302Z,99307.73
2022-08-19T23:25:30.145Z,99308.73
2022-08-19T23:28:37.499Z,99317.34
2022-08-19T23:31:30.030Z,99315.16
2022-08-19T23:34:18.471Z,99317.48
2022-08-19T23:37:06.130Z,99311.77
2022-08-19T23:39:53.981Z,99320.13
2022-08-19T23:42:46.572Z,99322.06
2022-08-19T23:45:38.419Z,99325.82
2022-08-19T23:48:28.743Z,99323.94
2022-08-19T23:51:17.733Z,99323.18
2022-08-19T23:54:05.198Z,99324.59
2022-08-19T23:56:53.521Z,99326.84
2022-08-19T23:59:42.817Z,99322.05
